Madison, AL (35757)

4:43 PM CDT on July 05, 2015 (GMT -0500)
The Bend | | Change Station
CLOSE
Current Station
Personal Weather Station
Location: Madison, AL
Elevation: 794 ft
Nearby Weather Stations

Elev 794 ft 34.79 °N, 86.74 °W | Updated 3 minutes ago

Mostly Cloudy
Mostly Cloudy
83.5 °F
Feels Like 89 °F
N
0.7
Wind Variable Wind from ENE
Gusts 7.6 mph

Today
High -- | Low -- °F
--% Chance of Precip.
Yesterday
High -- | Low -- °F
Precip. -- in
5:39 AM 8:03 PM
Waning Gibbous, 82% visible
Pressure 30.07 in
Visibility 10.0 miles
Clouds Clear
Heat Index 89 °F
Dew Point 72 °F
Humidity 69%
Rainfall 0.31 in
Snow Depth Not available.
UV 7 out of 12
Pollen .50 out of 12
Air Quality Not available.
Flu Activity Not available.
METAR KHUA 052058Z AUTO 21009KT 10SM CLR 27/21 A3008 RMK AO2 SLP181 T02720210 57011

More Conditions Fewer Conditions

Pressure 30.07 in
Visibility 10.0 miles
Clouds Clear
Heat Index 89 °F
Dew Point 72 °F
Humidity 69%
Rainfall 0.31 in
Snow Depth Not available.
UV 7 out of 12
Pollen .50 out of 12
Air Quality Not available.
Flu Activity Not available.
METAR KHUA 052058Z AUTO 21009KT 10SM CLR 27/21 A3008 RMK AO2 SLP181 T02720210 57011

More Conditions Fewer Conditions

10-Day Weather Forecast

×

Almanac

Astronomy

Jul. 05, 2015 Rise Set
Actual Time
Civil Twilight
Nautical Twilight
Astronomical Twilight
Moon
Length of Visible Light
Length of Day
Tomorrow will be .
, % of the Moon is Illuminated

Today's Extremes

State Highs State Lows

Community

WunderPhotos

Upload Photos

1,835,400 photos uploaded!

WunderBlogs® & News

Nearby

Air Quality

  Air Quality AQ Index Pollutant
Not available.

Snow Depth

Station Depth Elevation

Earthquake Activity

City Distance Mag. Time & Date
Minimum magnitude displayed is 2.5.

Coastal Water Temperatures

Place Temperature

Stations

Nearby Weather Stations

Station Location Temp. Windchill Dew Point Humidity Wind Precip. Elev Updated Type